Spirit Lake, IA (51360)

2:27 PM CST on February 20, 2017 (GMT -0600)
Dickinson Co. Courthouse | | Change Station

Elev 1470 ft 43.42 °N, 95.10 °W | Updated 0 second ago

Rain
Rain
56.0 °F
Feels Like 56.0 °F
N
2.1
Wind Variable Wind from SW
Gusts 8.1 mph

Today
High -- | Low -- °F
--% Chance of Precip.
Yesterday
High -- | Low -- °F
Precip. -- in
Pressure 29.69 in
Visibility 1.8 miles
Clouds Overcast 200 ft
Dew Point 56 °F
Humidity 100%
Rainfall 0.07 in
Snow Depth Not available.
7:10 AM 5:58 PM
Waning Crescent, 31% visible
METAR KMJQ 202015Z AUTO 20011KT 1 3/4SM DZ OVC002 11/11 A2969 RMK AO2 P0001
Pressure 29.69 in
Visibility 1.8 miles
Clouds Overcast 200 ft
Dew Point 56 °F
Humidity 100%
Rainfall 0.07 in
Snow Depth Not available.
7:10 AM 5:58 PM
Waning Crescent, 31% visible
METAR KMJQ 202015Z AUTO 20011KT 1 3/4SM DZ OVC002 11/11 A2969 RMK AO2 P0001

Get Your Daily Forecast Email!

Thanks for signing up!

Be on the lookout for a verification email in your inbox.

You'll start receiving the daily forecast at 8 AM.

×

10-Day Weather Forecast

Almanac

Astronomy

Feb. 20, 2017 Rise Set
Actual Time
Civil Twilight
Nautical Twilight
Astronomical Twilight
Moon
Length of Visible Light
Length of Day
Tomorrow will be .
, % of the Moon is Illuminated

Today's Extremes

State Highs State Lows

Community

WunderPhotos

Upload Photos

1,962,540 photos uploaded!

WunderBlog® & News

Nearby

Air Quality

  Air Quality AQ Index Pollutant
Not available.

Snow Depth

Station Depth Elevation

Earthquake Activity

City Distance Mag. Time & Date
Minimum magnitude displayed is 2.5.

Coastal Water Temperatures

Place Temperature

Stations

Nearby Weather Stations

Station Location Temp. Windchill Dew Point Humidity Wind Precip. Elev Updated Type
                   

Watches & Warnings

There are currently no watches in effect.